sensor_id;sensor_type;location;lat;lon;timestamp;temperature;humidity
29237;DHT22;16266;50.866;4.398;2023-04-25T00:01:46;9.20;99.90
29237;DHT22;16266;50.866;4.398;2023-04-25T00:04:12;9.30;99.90
29237;DHT22;16266;50.866;4.398;2023-04-25T00:06:38;9.30;99.90
29237;DHT22;16266;50.866;4.398;2023-04-25T00:09:05;9.30;99.90
29237;DHT22;16266;50.866;4.398;2023-04-25T00:11:33;9.30;99.90
29237;DHT22;16266;50.866;4.398;2023-04-25T00:13:59;9.30;99.90
29237;DHT22;16266;50.866;4.398;2023-04-25T00:16:27;9.20;99.90
29237;DHT22;16266;50.866;4.398;2023-04-25T00:18:54;9.20;99.90
29237;DHT22;16266;50.866;4.398;2023-04-25T00:21:20;9.30;99.90
29237;DHT22;16266;50.866;4.398;2023-04-25T00:23:46;9.40;99.90
29237;DHT22;16266;50.866;4.398;2023-04-25T00:26:12;9.30;99.90
29237;DHT22;16266;50.866;4.398;2023-04-25T00:28:39;9.30;99.90
29237;DHT22;16266;50.866;4.398;2023-04-25T00:31:05;9.20;99.90
29237;DHT22;16266;50.866;4.398;2023-04-25T00:33:31;9.30;99.90
29237;DHT22;16266;50.866;4.398;2023-04-25T00:35:56;9.20;99.90
29237;DHT22;16266;50.866;4.398;2023-04-25T00:38:22;9.30;99.90
29237;DHT22;16266;50.866;4.398;2023-04-25T00:40:48;9.40;99.90
29237;DHT22;16266;50.866;4.398;2023-04-25T00:43:13;9.30;99.90
29237;DHT22;16266;50.866;4.398;2023-04-25T00:45:39;9.20;99.90
29237;DHT22;16266;50.866;4.398;2023-04-25T00:48:06;9.10;99.90
29237;DHT22;16266;50.866;4.398;2023-04-25T00:50:36;9.00;99.90
29237;DHT22;16266;50.866;4.398;2023-04-25T00:53:02;8.90;99.90
29237;DHT22;16266;50.866;4.398;2023-04-25T00:55:29;8.70;99.90
29237;DHT22;16266;50.866;4.398;2023-04-25T00:57:57;8.60;99.90
29237;DHT22;16266;50.866;4.398;2023-04-25T01:00:22;8.60;99.90
29237;DHT22;16266;50.866;4.398;2023-04-25T01:02:48;8.40;99.90
29237;DHT22;16266;50.866;4.398;2023-04-25T01:05:15;8.40;99.90
29237;DHT22;16266;50.866;4.398;2023-04-25T01:07:41;8.40;99.90
29237;DHT22;16266;50.866;4.398;2023-04-25T01:10:07;8.40;99.90
29237;DHT22;16266;50.866;4.398;2023-04-25T01:12:33;8.50;99.90
29237;DHT22;16266;50.866;4.398;2023-04-25T01:14:59;8.50;99.90
29237;DHT22;16266;50.866;4.398;2023-04-25T01:17:25;8.40;99.90
29237;DHT22;16266;50.866;4.398;2023-04-25T01:19:51;8.50;99.90
29237;DHT22;16266;50.866;4.398;2023-04-25T01:22:17;8.60;99.90
29237;DHT22;16266;50.866;4.398;2023-04-25T01:24:43;8.60;99.90
29237;DHT22;16266;50.866;4.398;2023-04-25T01:27:09;8.60;99.90
29237;DHT22;16266;50.866;4.398;2023-04-25T01:29:35;8.60;99.90
29237;DHT22;16266;50.866;4.398;2023-04-25T01:32:01;8.70;99.90
29237;DHT22;16266;50.866;4.398;2023-04-25T01:34:28;8.60;99.90
29237;DHT22;16266;50.866;4.398;2023-04-25T01:36:54;8.60;99.90
29237;DHT22;16266;50.866;4.398;2023-04-25T01:39:21;8.60;99.90
29237;DHT22;16266;50.866;4.398;2023-04-25T01:41:47;8.50;99.90
29237;DHT22;16266;50.866;4.398;2023-04-25T01:44:13;8.40;99.90
29237;DHT22;16266;50.866;4.398;2023-04-25T01:46:39;8.30;99.90
29237;DHT22;16266;50.866;4.398;2023-04-25T01:49:05;8.30;99.90
29237;DHT22;16266;50.866;4.398;2023-04-25T01:51:31;8.20;99.90
29237;DHT22;16266;50.866;4.398;2023-04-25T01:53:57;8.20;99.90
29237;DHT22;16266;50.866;4.398;2023-04-25T01:56:23;8.10;99.90
29237;DHT22;16266;50.866;4.398;2023-04-25T01:58:49;8.00;99.90
29237;DHT22;16266;50.866;4.398;2023-04-25T02:01:15;8.10;99.90
29237;DHT22;16266;50.866;4.398;2023-04-25T02:03:40;8.10;99.90
29237;DHT22;16266;50.866;4.398;2023-04-25T02:06:06;8.10;99.90
29237;DHT22;16266;50.866;4.398;2023-04-25T02:08:32;8.00;99.90
29237;DHT22;16266;50.866;4.398;2023-04-25T02:10:58;8.10;99.90
29237;DHT22;16266;50.866;4.398;2023-04-25T02:13:23;8.10;99.90
29237;DHT22;16266;50.866;4.398;2023-04-25T02:15:49;8.10;99.90
29237;DHT22;16266;50.866;4.398;2023-04-25T02:18:15;8.00;99.90
29237;DHT22;16266;50.866;4.398;2023-04-25T02:20:45;8.00;99.90
29237;DHT22;16266;50.866;4.398;2023-04-25T02:23:11;8.00;99.90
29237;DHT22;16266;50.866;4.398;2023-04-25T02:25:36;8.00;99.90
29237;DHT22;16266;50.866;4.398;2023-04-25T02:28:02;8.00;99.90
29237;DHT22;16266;50.866;4.398;2023-04-25T02:30:28;8.10;99.90
29237;DHT22;16266;50.866;4.398;2023-04-25T02:32:54;8.10;99.90
29237;DHT22;16266;50.866;4.398;2023-04-25T02:35:19;8.10;99.90
29237;DHT22;16266;50.866;4.398;2023-04-25T02:37:45;8.00;99.90
29237;DHT22;16266;50.866;4.398;2023-04-25T02:40:11;8.00;99.90
29237;DHT22;16266;50.866;4.398;2023-04-25T02:42:37;8.00;99.90
29237;DHT22;16266;50.866;4.398;2023-04-25T02:45:03;8.00;99.90
29237;DHT22;16266;50.866;4.398;2023-04-25T02:47:29;8.00;99.90
29237;DHT22;16266;50.866;4.398;2023-04-25T02:49:54;8.00;99.90
29237;DHT22;16266;50.866;4.398;2023-04-25T02:52:20;8.00;99.90
29237;DHT22;16266;50.866;4.398;2023-04-25T02:54:46;8.00;99.90
29237;DHT22;16266;50.866;4.398;2023-04-25T02:57:12;8.00;99.90
29237;DHT22;16266;50.866;4.398;2023-04-25T02:59:38;7.90;99.90
29237;DHT22;16266;50.866;4.398;2023-04-25T03:02:03;7.90;99.90
29237;DHT22;16266;50.866;4.398;2023-04-25T03:04:29;7.90;99.90
29237;DHT22;16266;50.866;4.398;2023-04-25T03:06:55;8.00;99.90
29237;DHT22;16266;50.866;4.398;2023-04-25T03:09:21;8.00;99.90
29237;DHT22;16266;50.866;4.398;2023-04-25T03:11:46;7.90;99.90
29237;DHT22;16266;50.866;4.398;2023-04-25T03:14:12;7.90;99.90
29237;DHT22;16266;50.866;4.398;2023-04-25T03:16:38;7.90;99.90
29237;DHT22;16266;50.866;4.398;2023-04-25T03:19:05;7.90;99.90
29237;DHT22;16266;50.866;4.398;2023-04-25T03:21:32;7.80;99.90
29237;DHT22;16266;50.866;4.398;2023-04-25T03:23:59;7.80;99.90
29237;DHT22;16266;50.866;4.398;2023-04-25T03:26:25;7.80;99.90
29237;DHT22;16266;50.866;4.398;2023-04-25T03:28:51;7.70;99.90
29237;DHT22;16266;50.866;4.398;2023-04-25T03:31:16;7.70;99.90
29237;DHT22;16266;50.866;4.398;2023-04-25T03:33:42;7.60;99.90
29237;DHT22;16266;50.866;4.398;2023-04-25T03:36:08;7.60;99.90
29237;DHT22;16266;50.866;4.398;2023-04-25T03:38:34;7.50;99.90
29237;DHT22;16266;50.866;4.398;2023-04-25T03:41:00;7.50;99.90
29237;DHT22;16266;50.866;4.398;2023-04-25T03:43:26;7.40;99.90
29237;DHT22;16266;50.866;4.398;2023-04-25T03:45:51;7.30;99.90
29237;DHT22;16266;50.866;4.398;2023-04-25T03:48:17;7.30;99.90
29237;DHT22;16266;50.866;4.398;2023-04-25T03:50:43;7.20;99.90
29237;DHT22;16266;50.866;4.398;2023-04-25T03:53:08;7.20;99.90
29237;DHT22;16266;50.866;4.398;2023-04-25T03:55:34;7.10;99.90
29237;DHT22;16266;50.866;4.398;2023-04-25T03:58:00;7.10;99.90
29237;DHT22;16266;50.866;4.398;2023-04-25T04:00:25;7.10;99.90
29237;DHT22;16266;50.866;4.398;2023-04-25T04:02:51;7.20;99.90
29237;DHT22;16266;50.866;4.398;2023-04-25T04:05:17;7.20;99.90
29237;DHT22;16266;50.866;4.398;2023-04-25T04:07:42;7.10;99.90
29237;DHT22;16266;50.866;4.398;2023-04-25T04:10:12;7.20;99.90
29237;DHT22;16266;50.866;4.398;2023-04-25T04:12:38;7.20;99.90
29237;DHT22;16266;50.866;4.398;2023-04-25T04:15:05;7.20;99.90
29237;DHT22;16266;50.866;4.398;2023-04-25T04:17:31;7.30;99.90
29237;DHT22;16266;50.866;4.398;2023-04-25T04:19:57;7.30;99.90
29237;DHT22;16266;50.866;4.398;2023-04-25T04:22:23;7.20;99.90
29237;DHT22;16266;50.866;4.398;2023-04-25T04:24:49;7.30;99.90
29237;DHT22;16266;50.866;4.398;2023-04-25T04:27:17;7.40;99.90
29237;DHT22;16266;50.866;4.398;2023-04-25T04:29:43;7.40;99.90
29237;DHT22;16266;50.866;4.398;2023-04-25T04:32:09;7.50;99.90
29237;DHT22;16266;50.866;4.398;2023-04-25T04:34:34;7.60;99.90
29237;DHT22;16266;50.866;4.398;2023-04-25T04:37:00;7.60;99.90
29237;DHT22;16266;50.866;4.398;2023-04-25T04:39:26;7.50;99.90
29237;DHT22;16266;50.866;4.398;2023-04-25T04:41:52;7.50;99.90
29237;DHT22;16266;50.866;4.398;2023-04-25T04:44:17;7.40;99.90
29237;DHT22;16266;50.866;4.398;2023-04-25T04:46:43;7.40;99.90
29237;DHT22;16266;50.866;4.398;2023-04-25T04:49:10;7.50;99.90
29237;DHT22;16266;50.866;4.398;2023-04-25T04:51:37;7.60;99.90
29237;DHT22;16266;50.866;4.398;2023-04-25T04:54:03;7.60;99.90
29237;DHT22;16266;50.866;4.398;2023-04-25T04:56:29;7.60;99.90
29237;DHT22;16266;50.866;4.398;2023-04-25T04:58:58;7.60;99.90
29237;DHT22;16266;50.866;4.398;2023-04-25T05:01:24;7.50;99.90
29237;DHT22;16266;50.866;4.398;2023-04-25T05:03:51;7.40;99.90
29237;DHT22;16266;50.866;4.398;2023-04-25T05:06:18;7.30;99.90
29237;DHT22;16266;50.866;4.398;2023-04-25T05:08:44;7.30;99.90
29237;DHT22;16266;50.866;4.398;2023-04-25T05:11:10;7.30;99.90
29237;DHT22;16266;50.866;4.398;2023-04-25T05:13:36;7.30;99.90
29237;DHT22;16266;50.866;4.398;2023-04-25T05:16:02;7.20;99.90
29237;DHT22;16266;50.866;4.398;2023-04-25T05:18:28;7.20;99.90
29237;DHT22;16266;50.866;4.398;2023-04-25T05:20:53;7.20;99.90
29237;DHT22;16266;50.866;4.398;2023-04-25T05:23:19;7.20;99.90
29237;DHT22;16266;50.866;4.398;2023-04-25T05:25:45;7.20;99.90
29237;DHT22;16266;50.866;4.398;2023-04-25T05:28:12;7.10;99.90
29237;DHT22;16266;50.866;4.398;2023-04-25T05:30:38;7.10;99.90
29237;DHT22;16266;50.866;4.398;2023-04-25T05:33:04;7.10;99.90
29237;DHT22;16266;50.866;4.398;2023-04-25T05:35:30;7.10;99.90
29237;DHT22;16266;50.866;4.398;2023-04-25T05:37:56;7.10;99.90
29237;DHT22;16266;50.866;4.398;2023-04-25T05:40:21;7.20;99.90
29237;DHT22;16266;50.866;4.398;2023-04-25T05:42:47;7.20;99.90
29237;DHT22;16266;50.866;4.398;2023-04-25T05:45:13;7.30;99.90
29237;DHT22;16266;50.866;4.398;2023-04-25T05:47:38;7.50;99.90
29237;DHT22;16266;50.866;4.398;2023-04-25T05:50:05;7.50;99.90
29237;DHT22;16266;50.866;4.398;2023-04-25T05:52:31;7.50;99.90
29237;DHT22;16266;50.866;4.398;2023-04-25T05:54:56;7.60;99.90
29237;DHT22;16266;50.866;4.398;2023-04-25T05:57:23;7.70;99.90
29237;DHT22;16266;50.866;4.398;2023-04-25T05:59:50;7.80;99.90
29237;DHT22;16266;50.866;4.398;2023-04-25T06:02:15;7.90;99.90
29237;DHT22;16266;50.866;4.398;2023-04-25T06:04:41;8.00;99.90
29237;DHT22;16266;50.866;4.398;2023-04-25T06:07:07;8.00;99.90
29237;DHT22;16266;50.866;4.398;2023-04-25T06:09:32;8.00;99.90
29237;DHT22;16266;50.866;4.398;2023-04-25T06:11:58;8.00;99.90
29237;DHT22;16266;50.866;4.398;2023-04-25T06:14:24;8.00;99.90
29237;DHT22;16266;50.866;4.398;2023-04-25T06:16:50;8.00;99.90
29237;DHT22;16266;50.866;4.398;2023-04-25T06:19:15;8.10;99.90
29237;DHT22;16266;50.866;4.398;2023-04-25T06:21:43;8.20;99.90
29237;DHT22;16266;50.866;4.398;2023-04-25T06:24:09;8.30;99.90
29237;DHT22;16266;50.866;4.398;2023-04-25T06:26:35;8.40;99.90
29237;DHT22;16266;50.866;4.398;2023-04-25T06:29:01;8.40;99.90
29237;DHT22;16266;50.866;4.398;2023-04-25T06:31:26;8.60;99.90
29237;DHT22;16266;50.866;4.398;2023-04-25T06:33:52;8.80;99.90
29237;DHT22;16266;50.866;4.398;2023-04-25T06:36:20;8.90;99.90
29237;DHT22;16266;50.866;4.398;2023-04-25T06:38:50;9.10;99.90
29237;DHT22;16266;50.866;4.398;2023-04-25T06:41:17;9.40;99.90
29237;DHT22;16266;50.866;4.398;2023-04-25T06:43:42;9.30;99.90
29237;DHT22;16266;50.866;4.398;2023-04-25T06:46:08;9.20;99.90
29237;DHT22;16266;50.866;4.398;2023-04-25T06:48:34;9.30;99.90
29237;DHT22;16266;50.866;4.398;2023-04-25T06:50:59;9.30;99.90
29237;DHT22;16266;50.866;4.398;2023-04-25T06:53:25;9.40;99.90
29237;DHT22;16266;50.866;4.398;2023-04-25T06:55:51;9.60;99.90
29237;DHT22;16266;50.866;4.398;2023-04-25T06:58:17;9.40;99.90
29237;DHT22;16266;50.866;4.398;2023-04-25T07:00:43;9.30;99.90
29237;DHT22;16266;50.866;4.398;2023-04-25T07:03:08;9.40;99.90
29237;DHT22;16266;50.866;4.398;2023-04-25T07:05:35;9.30;99.90
29237;DHT22;16266;50.866;4.398;2023-04-25T07:08:01;9.60;99.90
29237;DHT22;16266;50.866;4.398;2023-04-25T07:10:27;9.60;99.90
29237;DHT22;16266;50.866;4.398;2023-04-25T07:12:52;9.80;99.90
29237;DHT22;16266;50.866;4.398;2023-04-25T07:15:18;9.80;99.90
29237;DHT22;16266;50.866;4.398;2023-04-25T07:17:44;9.90;99.90
29237;DHT22;16266;50.866;4.398;2023-04-25T07:20:10;9.90;99.90
29237;DHT22;16266;50.866;4.398;2023-04-25T07:22:36;9.70;99.90
29237;DHT22;16266;50.866;4.398;2023-04-25T07:25:01;9.80;99.90
29237;DHT22;16266;50.866;4.398;2023-04-25T07:27:28;9.90;99.90
29237;DHT22;16266;50.866;4.398;2023-04-25T07:29:53;10.10;99.90
29237;DHT22;16266;50.866;4.398;2023-04-25T07:32:19;10.00;99.90
29237;DHT22;16266;50.866;4.398;2023-04-25T07:34:45;10.00;99.90
29237;DHT22;16266;50.866;4.398;2023-04-25T07:37:10;10.00;99.90
29237;DHT22;16266;50.866;4.398;2023-04-25T07:39:36;10.20;99.90
29237;DHT22;16266;50.866;4.398;2023-04-25T07:42:03;10.20;99.90
29237;DHT22;16266;50.866;4.398;2023-04-25T07:44:29;10.30;99.90
29237;DHT22;16266;50.866;4.398;2023-04-25T07:46:56;10.80;99.90
29237;DHT22;16266;50.866;4.398;2023-04-25T07:49:22;11.30;99.90
29237;DHT22;16266;50.866;4.398;2023-04-25T07:51:47;11.60;99.90
29237;DHT22;16266;50.866;4.398;2023-04-25T07:54:14;11.70;99.90
29237;DHT22;16266;50.866;4.398;2023-04-25T07:56:41;11.60;99.90
29237;DHT22;16266;50.866;4.398;2023-04-25T07:59:06;12.10;99.90
29237;DHT22;16266;50.866;4.398;2023-04-25T08:01:34;12.10;99.90
29237;DHT22;16266;50.866;4.398;2023-04-25T08:03:59;12.30;99.90
29237;DHT22;16266;50.866;4.398;2023-04-25T08:06:25;12.50;99.90
29237;DHT22;16266;50.866;4.398;2023-04-25T08:08:51;12.40;99.90
29237;DHT22;16266;50.866;4.398;2023-04-25T08:11:17;12.50;99.90
29237;DHT22;16266;50.866;4.398;2023-04-25T08:13:43;12.70;99.90
29237;DHT22;16266;50.866;4.398;2023-04-25T08:16:08;13.20;99.90
29237;DHT22;16266;50.866;4.398;2023-04-25T08:18:34;13.30;99.90
29237;DHT22;16266;50.866;4.398;2023-04-25T08:20:59;13.10;99.90
29237;DHT22;16266;50.866;4.398;2023-04-25T08:23:25;13.60;99.90
29237;DHT22;16266;50.866;4.398;2023-04-25T08:25:52;13.70;99.90
29237;DHT22;16266;50.866;4.398;2023-04-25T08:28:17;14.20;99.90
29237;DHT22;16266;50.866;4.398;2023-04-25T08:30:43;14.20;99.90
29237;DHT22;16266;50.866;4.398;2023-04-25T08:33:09;14.10;99.90
29237;DHT22;16266;50.866;4.398;2023-04-25T08:35:36;14.60;99.90
29237;DHT22;16266;50.866;4.398;2023-04-25T08:38:02;15.20;99.90
29237;DHT22;16266;50.866;4.398;2023-04-25T08:40:28;15.90;99.90
29237;DHT22;16266;50.866;4.398;2023-04-25T08:42:57;17.20;99.90
29237;DHT22;16266;50.866;4.398;2023-04-25T08:45:23;19.40;99.90
29237;DHT22;16266;50.866;4.398;2023-04-25T08:47:51;21.30;86.70
29237;DHT22;16266;50.866;4.398;2023-04-25T08:50:18;21.20;72.70
29237;DHT22;16266;50.866;4.398;2023-04-25T08:52:47;20.40;75.90
29237;DHT22;16266;50.866;4.398;2023-04-25T08:55:16;18.90;77.00
29237;DHT22;16266;50.866;4.398;2023-04-25T08:57:42;16.90;87.20
29237;DHT22;16266;50.866;4.398;2023-04-25T09:00:10;15.70;95.50
29237;DHT22;16266;50.866;4.398;2023-04-25T09:02:38;15.40;97.90
29237;DHT22;16266;50.866;4.398;2023-04-25T09:05:04;15.60;96.50
29237;DHT22;16266;50.866;4.398;2023-04-25T09:07:32;15.60;95.20
29237;DHT22;16266;50.866;4.398;2023-04-25T09:09:58;15.60;96.40
29237;DHT22;16266;50.866;4.398;2023-04-25T09:12:29;16.50;90.80
29237;DHT22;16266;50.866;4.398;2023-04-25T09:15:21;16.50;86.30
29237;DHT22;16266;50.866;4.398;2023-04-25T09:17:55;16.00;85.80
29237;DHT22;16266;50.866;4.398;2023-04-25T09:20:21;15.40;90.60
29237;DHT22;16266;50.866;4.398;2023-04-25T09:22:47;14.80;94.30
29237;DHT22;16266;50.866;4.398;2023-04-25T09:25:13;13.70;96.20
29237;DHT22;16266;50.866;4.398;2023-04-25T09:27:54;13.20;99.90
29237;DHT22;16266;50.866;4.398;2023-04-25T09:30:31;13.20;99.90
29237;DHT22;16266;50.866;4.398;2023-04-25T09:33:04;13.20;99.90
29237;DHT22;16266;50.866;4.398;2023-04-25T09:35:39;13.30;99.90
29237;DHT22;16266;50.866;4.398;2023-04-25T09:40:45;13.90;99.90
29237;DHT22;16266;50.866;4.398;2023-04-25T09:43:21;15.60;99.90
29237;DHT22;16266;50.866;4.398;2023-04-25T09:45:47;16.20;96.90
29237;DHT22;16266;50.866;4.398;2023-04-25T09:48:22;18.00;94.90
29237;DHT22;16266;50.866;4.398;2023-04-25T09:51:14;19.80;82.00
29237;DHT22;16266;50.866;4.398;2023-04-25T09:53:45;20.00;77.40
29237;DHT22;16266;50.866;4.398;2023-04-25T09:56:16;21.00;73.70
29237;DHT22;16266;50.866;4.398;2023-04-25T09:58:42;20.20;69.60
29237;DHT22;16266;50.866;4.398;2023-04-25T10:01:09;19.20;71.70
29237;DHT22;16266;50.866;4.398;2023-04-25T10:03:37;18.10;72.20
29237;DHT22;16266;50.866;4.398;2023-04-25T10:06:08;19.30;66.40
29237;DHT22;16266;50.866;4.398;2023-04-25T10:08:36;20.40;56.70
29237;DHT22;16266;50.866;4.398;2023-04-25T10:11:04;21.80;51.10
29237;DHT22;16266;50.866;4.398;2023-04-25T10:13:31;23.20;43.00
29237;DHT22;16266;50.866;4.398;2023-04-25T10:16:02;21.90;43.20
29237;DHT22;16266;50.866;4.398;2023-04-25T10:18:30;21.10;44.10
29237;DHT22;16266;50.866;4.398;2023-04-25T10:20:59;21.90;43.10
29237;DHT22;16266;50.866;4.398;2023-04-25T10:23:25;23.30;40.90
29237;DHT22;16266;50.866;4.398;2023-04-25T10:25:52;24.50;35.50
29237;DHT22;16266;50.866;4.398;2023-04-25T10:28:18;25.00;29.50
29237;DHT22;16266;50.866;4.398;2023-04-25T10:31:02;24.20;27.10
29237;DHT22;16266;50.866;4.398;2023-04-25T10:33:40;23.30;28.00
29237;DHT22;16266;50.866;4.398;2023-04-25T10:36:18;22.60;28.70
29237;DHT22;16266;50.866;4.398;2023-04-25T10:38:45;22.30;29.10
29237;DHT22;16266;50.866;4.398;2023-04-25T10:41:12;21.30;31.00
29237;DHT22;16266;50.866;4.398;2023-04-25T10:43:42;20.50;30.50
29237;DHT22;16266;50.866;4.398;2023-04-25T10:46:27;22.00;26.50
29237;DHT22;16266;50.866;4.398;2023-04-25T10:48:56;21.20;29.90
29237;DHT22;16266;50.866;4.398;2023-04-25T10:51:27;21.40;30.10
29237;DHT22;16266;50.866;4.398;2023-04-25T10:54:01;20.00;31.00
29237;DHT22;16266;50.866;4.398;2023-04-25T10:56:32;19.20;33.00
29237;DHT22;16266;50.866;4.398;2023-04-25T11:01:43;17.70;39.10
29237;DHT22;16266;50.866;4.398;2023-04-25T11:04:24;17.40;42.90
29237;DHT22;16266;50.866;4.398;2023-04-25T11:09:29;16.50;53.70
29237;DHT22;16266;50.866;4.398;2023-04-25T11:11:56;15.00;79.60
29237;DHT22;16266;50.866;4.398;2023-04-25T11:14:22;14.40;96.50
29237;DHT22;16266;50.866;4.398;2023-04-25T11:16:58;14.20;97.20
29237;DHT22;16266;50.866;4.398;2023-04-25T11:19:25;13.90;96.80
29237;DHT22;16266;50.866;4.398;2023-04-25T11:21:56;14.10;97.00
29237;DHT22;16266;50.866;4.398;2023-04-25T11:24:34;14.80;96.90
29237;DHT22;16266;50.866;4.398;2023-04-25T11:27:07;15.00;92.20
29237;DHT22;16266;50.866;4.398;2023-04-25T11:29:34;15.40;95.20
29237;DHT22;16266;50.866;4.398;2023-04-25T11:32:01;15.60;94.50
29237;DHT22;16266;50.866;4.398;2023-04-25T11:34:28;15.90;94.40
29237;DHT22;16266;50.866;4.398;2023-04-25T11:36:56;16.00;93.00
29237;DHT22;16266;50.866;4.398;2023-04-25T11:39:24;16.00;92.20
29237;DHT22;16266;50.866;4.398;2023-04-25T11:41:50;16.40;92.30
29237;DHT22;16266;50.866;4.398;2023-04-25T11:44:17;17.00;90.00
29237;DHT22;16266;50.866;4.398;2023-04-25T11:46:44;17.50;81.00
29237;DHT22;16266;50.866;4.398;2023-04-25T11:49:10;18.60;75.30
29237;DHT22;16266;50.866;4.398;2023-04-25T11:51:43;19.60;62.20
29237;DHT22;16266;50.866;4.398;2023-04-25T11:54:09;20.10;53.20
29237;DHT22;16266;50.866;4.398;2023-04-25T11:56:35;19.80;54.10
29237;DHT22;16266;50.866;4.398;2023-04-25T11:59:04;18.80;49.70
29237;DHT22;16266;50.866;4.398;2023-04-25T12:01:35;17.70;54.00
29237;DHT22;16266;50.866;4.398;2023-04-25T12:06:42;23.70;42.00
29237;DHT22;16266;50.866;4.398;2023-04-25T12:09:10;24.40;33.00
29237;DHT22;16266;50.866;4.398;2023-04-25T12:11:56;23.80;30.80
29237;DHT22;16266;50.866;4.398;2023-04-25T12:16:55;19.40;40.50
29237;DHT22;16266;50.866;4.398;2023-04-25T12:19:21;19.10;38.10
29237;DHT22;16266;50.866;4.398;2023-04-25T12:21:48;17.90;36.40
29237;DHT22;16266;50.866;4.398;2023-04-25T12:24:22;17.30;41.50
29237;DHT22;16266;50.866;4.398;2023-04-25T12:26:52;16.80;41.90
29237;DHT22;16266;50.866;4.398;2023-04-25T12:29:19;15.90;43.10
29237;DHT22;16266;50.866;4.398;2023-04-25T12:31:45;16.30;45.20
29237;DHT22;16266;50.866;4.398;2023-04-25T12:34:12;19.20;40.80
29237;DHT22;16266;50.866;4.398;2023-04-25T12:36:37;19.30;34.20
29237;DHT22;16266;50.866;4.398;2023-04-25T12:39:04;18.80;32.30
29237;DHT22;16266;50.866;4.398;2023-04-25T12:41:30;20.10;32.50
29237;DHT22;16266;50.866;4.398;2023-04-25T12:43:56;21.60;29.10
29237;DHT22;16266;50.866;4.398;2023-04-25T12:46:22;20.60;29.70
29237;DHT22;16266;50.866;4.398;2023-04-25T12:48:50;20.90;29.60
29237;DHT22;16266;50.866;4.398;2023-04-25T12:51:16;21.40;28.20
29237;DHT22;16266;50.866;4.398;2023-04-25T12:53:42;19.00;31.20
29237;DHT22;16266;50.866;4.398;2023-04-25T12:56:08;17.60;35.20
29237;DHT22;16266;50.866;4.398;2023-04-25T12:58:34;16.20;43.00
29237;DHT22;16266;50.866;4.398;2023-04-25T13:01:00;15.40;53.60
29237;DHT22;16266;50.866;4.398;2023-04-25T13:03:25;14.70;61.00
29237;DHT22;16266;50.866;4.398;2023-04-25T13:05:51;14.70;69.50
29237;DHT22;16266;50.866;4.398;2023-04-25T13:08:18;14.40;72.40
29237;DHT22;16266;50.866;4.398;2023-04-25T13:10:45;14.60;70.80
29237;DHT22;16266;50.866;4.398;2023-04-25T13:13:11;14.40;66.80
29237;DHT22;16266;50.866;4.398;2023-04-25T13:15:36;14.30;65.40
29237;DHT22;16266;50.866;4.398;2023-04-25T13:18:05;14.20;65.10
29237;DHT22;16266;50.866;4.398;2023-04-25T13:20:31;14.30;67.40
29237;DHT22;16266;50.866;4.398;2023-04-25T13:22:57;15.00;66.10
29237;DHT22;16266;50.866;4.398;2023-04-25T13:25:22;16.80;58.80
29237;DHT22;16266;50.866;4.398;2023-04-25T13:27:48;17.00;49.80
29237;DHT22;16266;50.866;4.398;2023-04-25T13:30:14;15.50;50.20
29237;DHT22;16266;50.866;4.398;2023-04-25T13:32:40;15.90;53.30
29237;DHT22;16266;50.866;4.398;2023-04-25T13:35:09;17.40;51.10
29237;DHT22;16266;50.866;4.398;2023-04-25T13:37:35;17.30;45.30
29237;DHT22;16266;50.866;4.398;2023-04-25T13:40:02;16.10;45.00
29237;DHT22;16266;50.866;4.398;2023-04-25T13:42:30;15.60;42.70
29237;DHT22;16266;50.866;4.398;2023-04-25T13:44:56;15.00;41.60
29237;DHT22;16266;50.866;4.398;2023-04-25T13:47:22;14.60;44.10
29237;DHT22;16266;50.866;4.398;2023-04-25T13:49:48;15.30;46.10
29237;DHT22;16266;50.866;4.398;2023-04-25T13:52:14;16.20;48.10
29237;DHT22;16266;50.866;4.398;2023-04-25T13:54:40;16.60;49.10
29237;DHT22;16266;50.866;4.398;2023-04-25T13:57:06;15.70;55.50
29237;DHT22;16266;50.866;4.398;2023-04-25T13:59:32;15.70;58.10
29237;DHT22;16266;50.866;4.398;2023-04-25T14:01:58;15.60;57.60
29237;DHT22;16266;50.866;4.398;2023-04-25T14:04:24;15.30;61.40
29237;DHT22;16266;50.866;4.398;2023-04-25T14:06:50;15.40;63.80
29237;DHT22;16266;50.866;4.398;2023-04-25T14:09:17;15.10;65.10
29237;DHT22;16266;50.866;4.398;2023-04-25T14:11:42;14.90;67.00
29237;DHT22;16266;50.866;4.398;2023-04-25T14:14:08;14.80;56.30
29237;DHT22;16266;50.866;4.398;2023-04-25T14:16:34;14.30;56.30
29237;DHT22;16266;50.866;4.398;2023-04-25T14:19:00;13.70;58.90
29237;DHT22;16266;50.866;4.398;2023-04-25T14:21:27;14.00;57.20
29237;DHT22;16266;50.866;4.398;2023-04-25T14:23:53;13.90;58.70
29237;DHT22;16266;50.866;4.398;2023-04-25T14:26:19;13.80;58.90
29237;DHT22;16266;50.866;4.398;2023-04-25T14:28:45;13.90;59.80
29237;DHT22;16266;50.866;4.398;2023-04-25T14:31:10;13.70;59.00
29237;DHT22;16266;50.866;4.398;2023-04-25T14:33:36;13.80;61.20
29237;DHT22;16266;50.866;4.398;2023-04-25T14:36:06;14.00;58.90
29237;DHT22;16266;50.866;4.398;2023-04-25T14:38:31;14.10;58.30
29237;DHT22;16266;50.866;4.398;2023-04-25T14:40:57;14.50;59.30
29237;DHT22;16266;50.866;4.398;2023-04-25T14:43:23;15.00;55.60
29237;DHT22;16266;50.866;4.398;2023-04-25T14:45:49;14.80;56.60
29237;DHT22;16266;50.866;4.398;2023-04-25T14:48:15;14.30;58.90
29237;DHT22;16266;50.866;4.398;2023-04-25T14:50:41;14.30;59.20
29237;DHT22;16266;50.866;4.398;2023-04-25T14:53:07;13.80;61.50
29237;DHT22;16266;50.866;4.398;2023-04-25T14:55:33;13.40;64.50
29237;DHT22;16266;50.866;4.398;2023-04-25T14:57:58;13.30;65.30
29237;DHT22;16266;50.866;4.398;2023-04-25T15:00:24;13.40;66.80
29237;DHT22;16266;50.866;4.398;2023-04-25T15:02:51;13.40;66.10
29237;DHT22;16266;50.866;4.398;2023-04-25T15:05:17;13.70;65.00
29237;DHT22;16266;50.866;4.398;2023-04-25T15:07:43;14.00;64.30
29237;DHT22;16266;50.866;4.398;2023-04-25T15:10:10;13.80;55.60
29237;DHT22;16266;50.866;4.398;2023-04-25T15:12:41;14.00;56.70
29237;DHT22;16266;50.866;4.398;2023-04-25T15:15:08;14.20;60.20
29237;DHT22;16266;50.866;4.398;2023-04-25T15:17:38;14.40;63.50
29237;DHT22;16266;50.866;4.398;2023-04-25T15:20:05;14.60;61.00
29237;DHT22;16266;50.866;4.398;2023-04-25T15:22:31;14.40;59.90
29237;DHT22;16266;50.866;4.398;2023-04-25T15:24:57;14.20;57.00
29237;DHT22;16266;50.866;4.398;2023-04-25T15:27:23;14.00;58.00
29237;DHT22;16266;50.866;4.398;2023-04-25T15:29:49;14.10;63.60
29237;DHT22;16266;50.866;4.398;2023-04-25T15:32:15;13.70;57.50
29237;DHT22;16266;50.866;4.398;2023-04-25T15:34:41;13.60;59.50
29237;DHT22;16266;50.866;4.398;2023-04-25T15:37:06;13.50;59.50
29237;DHT22;16266;50.866;4.398;2023-04-25T15:39:32;13.30;63.20
29237;DHT22;16266;50.866;4.398;2023-04-25T15:41:58;13.20;65.90
29237;DHT22;16266;50.866;4.398;2023-04-25T15:44:24;13.00;68.10
29237;DHT22;16266;50.866;4.398;2023-04-25T15:46:50;12.90;70.40
29237;DHT22;16266;50.866;4.398;2023-04-25T15:49:15;13.00;70.00